sensor_id;sensor_type;location;lat;lon;timestamp;pressure;altitude;pressure_sealevel;temperature;humidity
43741;BME280;29352;48.708;9.290;2023-05-22T00:02:23;97451.22;;;6.30;89.40
43741;BME280;29352;48.708;9.290;2023-05-22T00:04:49;97447.53;;;6.31;89.86
43741;BME280;29352;48.708;9.290;2023-05-22T00:07:15;97450.00;;;6.26;88.68
43741;BME280;29352;48.708;9.290;2023-05-22T00:09:40;97451.06;;;6.51;86.93
43741;BME280;29352;48.708;9.290;2023-05-22T00:12:06;97447.81;;;6.56;87.35
43741;BME280;29352;48.708;9.290;2023-05-22T00:14:32;97441.09;;;6.60;89.75
43741;BME280;29352;48.708;9.290;2023-05-22T00:16:57;97439.84;;;6.43;88.14
43741;BME280;29352;48.708;9.290;2023-05-22T00:19:24;97445.53;;;6.39;89.35
43741;BME280;29352;48.708;9.290;2023-05-22T00:21:49;97442.84;;;6.20;89.11
43741;BME280;29352;48.708;9.290;2023-05-22T00:24:15;97431.63;;;6.24;88.67
43741;BME280;29352;48.708;9.290;2023-05-22T00:26:40;97429.59;;;6.20;88.67
43741;BME280;29352;48.708;9.290;2023-05-22T00:29:06;97434.50;;;6.29;88.21
43741;BME280;29352;48.708;9.290;2023-05-22T00:31:32;97425.06;;;6.13;87.26
43741;BME280;29352;48.708;9.290;2023-05-22T00:33:57;97431.63;;;6.17;88.48
43741;BME280;29352;48.708;9.290;2023-05-22T00:36:23;97434.53;;;6.43;86.89
43741;BME280;29352;48.708;9.290;2023-05-22T00:38:49;97432.59;;;6.10;88.12
43741;BME280;29352;48.708;9.290;2023-05-22T00:41:14;97427.53;;;6.08;88.16
43741;BME280;29352;48.708;9.290;2023-05-22T00:43:40;97434.50;;;5.75;90.04
43741;BME280;29352;48.708;9.290;2023-05-22T00:46:05;97432.31;;;5.85;91.59
43741;BME280;29352;48.708;9.290;2023-05-22T00:48:31;97429.34;;;6.01;89.44
43741;BME280;29352;48.708;9.290;2023-05-22T00:50:58;97425.34;;;6.25;89.11
43741;BME280;29352;48.708;9.290;2023-05-22T00:53:27;97429.00;;;6.31;89.20
43741;BME280;29352;48.708;9.290;2023-05-22T00:55:56;97428.75;;;6.12;90.21
43741;BME280;29352;48.708;9.290;2023-05-22T00:58:25;97429.41;;;6.21;89.06
43741;BME280;29352;48.708;9.290;2023-05-22T01:00:51;97439.19;;;6.34;87.24
43741;BME280;29352;48.708;9.290;2023-05-22T01:03:17;97440.44;;;6.38;89.10
43741;BME280;29352;48.708;9.290;2023-05-22T01:05:43;97444.28;;;6.22;91.71
43741;BME280;29352;48.708;9.290;2023-05-22T01:08:10;97439.78;;;6.23;89.72
43741;BME280;29352;48.708;9.290;2023-05-22T01:10:38;97438.31;;;6.13;90.24
43741;BME280;29352;48.708;9.290;2023-05-22T01:25:44;97449.00;;;5.85;87.99
43741;BME280;29352;48.708;9.290;2023-05-22T01:28:35;97457.19;;;5.90;88.85
43741;BME280;29352;48.708;9.290;2023-05-22T01:31:24;97447.25;;;5.64;88.88
43741;BME280;29352;48.708;9.290;2023-05-22T01:33:56;97454.16;;;5.59;89.40
43741;BME280;29352;48.708;9.290;2023-05-22T01:36:28;97451.41;;;5.74;89.18
43741;BME280;29352;48.708;9.290;2023-05-22T01:38:59;97451.81;;;5.71;89.06
43741;BME280;29352;48.708;9.290;2023-05-22T01:41:28;97457.97;;;5.84;89.12
43741;BME280;29352;48.708;9.290;2023-05-22T01:43:55;97454.22;;;5.37;91.68
43741;BME280;29352;48.708;9.290;2023-05-22T01:46:25;97452.28;;;5.53;91.23
43741;BME280;29352;48.708;9.290;2023-05-22T01:48:51;97460.28;;;5.59;91.93
43741;BME280;29352;48.708;9.290;2023-05-22T01:51:32;97468.13;;;5.46;92.71
43741;BME280;29352;48.708;9.290;2023-05-22T01:54:18;97465.66;;;5.16;91.64
43741;BME280;29352;48.708;9.290;2023-05-22T01:56:55;97469.75;;;5.47;90.48
43741;BME280;29352;48.708;9.290;2023-05-22T01:59:45;97467.16;;;5.54;88.89
43741;BME280;29352;48.708;9.290;2023-05-22T02:02:20;97461.97;;;5.67;88.55
43741;BME280;29352;48.708;9.290;2023-05-22T02:04:53;97465.09;;;5.77;89.84
43741;BME280;29352;48.708;9.290;2023-05-22T02:07:24;97468.16;;;5.81;88.30
43741;BME280;29352;48.708;9.290;2023-05-22T02:09:53;97467.63;;;5.64;88.00
43741;BME280;29352;48.708;9.290;2023-05-22T02:12:21;97471.75;;;5.38;91.29
43741;BME280;29352;48.708;9.290;2023-05-22T02:14:48;97463.66;;;5.81;89.47
43741;BME280;29352;48.708;9.290;2023-05-22T02:17:14;97474.47;;;5.52;90.29
43741;BME280;29352;48.708;9.290;2023-05-22T02:19:44;97467.69;;;5.71;90.07
43741;BME280;29352;48.708;9.290;2023-05-22T02:22:10;97469.75;;;5.47;90.19
43741;BME280;29352;48.708;9.290;2023-05-22T02:24:45;97464.63;;;5.39;90.72
43741;BME280;29352;48.708;9.290;2023-05-22T02:27:12;97470.78;;;5.46;90.11
43741;BME280;29352;48.708;9.290;2023-05-22T02:29:38;97462.66;;;5.54;89.33
43741;BME280;29352;48.708;9.290;2023-05-22T02:32:04;97471.00;;;5.51;89.89
43741;BME280;29352;48.708;9.290;2023-05-22T02:34:30;97466.03;;;5.35;89.26
43741;BME280;29352;48.708;9.290;2023-05-22T02:36:58;97461.63;;;5.20;89.61
43741;BME280;29352;48.708;9.290;2023-05-22T02:39:25;97465.00;;;5.36;91.19
43741;BME280;29352;48.708;9.290;2023-05-22T02:41:51;97463.38;;;5.35;91.52
43741;BME280;29352;48.708;9.290;2023-05-22T02:44:16;97469.75;;;5.47;90.24
43741;BME280;29352;48.708;9.290;2023-05-22T02:46:42;97465.06;;;5.42;90.14
43741;BME280;29352;48.708;9.290;2023-05-22T02:49:07;97471.94;;;5.37;91.22
43741;BME280;29352;48.708;9.290;2023-05-22T02:51:33;97470.16;;;5.16;91.05
43741;BME280;29352;48.708;9.290;2023-05-22T02:53:58;97462.75;;;5.33;90.61
43741;BME280;29352;48.708;9.290;2023-05-22T02:56:23;97466.50;;;5.45;89.38
43741;BME280;29352;48.708;9.290;2023-05-22T02:58:51;97463.84;;;5.45;89.94
43741;BME280;29352;48.708;9.290;2023-05-22T03:01:17;97468.00;;;5.61;90.23
43741;BME280;29352;48.708;9.290;2023-05-22T03:03:42;97463.06;;;5.51;90.38
43741;BME280;29352;48.708;9.290;2023-05-22T03:06:08;97466.72;;;5.50;90.26
43741;BME280;29352;48.708;9.290;2023-05-22T03:08:34;97468.09;;;5.11;91.63
43741;BME280;29352;48.708;9.290;2023-05-22T03:11:02;97469.81;;;5.26;91.62
43741;BME280;29352;48.708;9.290;2023-05-22T03:13:28;97468.72;;;5.48;90.93
43741;BME280;29352;48.708;9.290;2023-05-22T03:15:53;97467.06;;;5.68;90.85
43741;BME280;29352;48.708;9.290;2023-05-22T03:18:19;97461.06;;;5.88;89.65
43741;BME280;29352;48.708;9.290;2023-05-22T03:20:45;97468.94;;;5.75;90.18
43741;BME280;29352;48.708;9.290;2023-05-22T03:23:11;97462.84;;;5.81;89.56
43741;BME280;29352;48.708;9.290;2023-05-22T03:25:37;97467.59;;;5.57;90.88
43741;BME280;29352;48.708;9.290;2023-05-22T03:28:03;97480.44;;;5.60;90.67
43741;BME280;29352;48.708;9.290;2023-05-22T03:30:28;97480.72;;;5.72;89.94
43741;BME280;29352;48.708;9.290;2023-05-22T03:32:54;97495.72;;;5.65;90.86
43741;BME280;29352;48.708;9.290;2023-05-22T03:35:20;97496.94;;;5.62;90.65
43741;BME280;29352;48.708;9.290;2023-05-22T03:37:45;97489.16;;;5.89;90.26
43741;BME280;29352;48.708;9.290;2023-05-22T03:40:11;97508.84;;;5.73;90.50
43741;BME280;29352;48.708;9.290;2023-05-22T03:42:37;97499.38;;;5.64;91.82
43741;BME280;29352;48.708;9.290;2023-05-22T03:45:03;97495.19;;;6.11;89.89
43741;BME280;29352;48.708;9.290;2023-05-22T03:47:29;97491.22;;;5.87;91.19
43741;BME280;29352;48.708;9.290;2023-05-22T03:49:55;97491.56;;;6.19;91.01
43741;BME280;29352;48.708;9.290;2023-05-22T03:52:21;97478.13;;;6.27;89.63
43741;BME280;29352;48.708;9.290;2023-05-22T03:54:47;97481.78;;;6.26;89.87
43741;BME280;29352;48.708;9.290;2023-05-22T03:57:12;97484.28;;;6.40;89.09
43741;BME280;29352;48.708;9.290;2023-05-22T03:59:39;97494.03;;;6.33;88.89
43741;BME280;29352;48.708;9.290;2023-05-22T04:02:04;97486.38;;;6.72;87.01
43741;BME280;29352;48.708;9.290;2023-05-22T04:04:32;97486.03;;;7.41;84.39
43741;BME280;29352;48.708;9.290;2023-05-22T04:07:03;97494.00;;;7.41;84.21
43741;BME280;29352;48.708;9.290;2023-05-22T04:09:33;97496.25;;;7.31;84.22
43741;BME280;29352;48.708;9.290;2023-05-22T04:12:03;97493.81;;;7.36;84.79
43741;BME280;29352;48.708;9.290;2023-05-22T04:14:29;97494.63;;;7.30;84.97
43741;BME280;29352;48.708;9.290;2023-05-22T04:16:55;97495.44;;;7.37;84.48
43741;BME280;29352;48.708;9.290;2023-05-22T04:19:20;97494.63;;;7.43;83.61
43741;BME280;29352;48.708;9.290;2023-05-22T04:21:47;97504.44;;;7.29;84.24
43741;BME280;29352;48.708;9.290;2023-05-22T04:24:12;97498.25;;;7.55;82.59
43741;BME280;29352;48.708;9.290;2023-05-22T04:26:38;97500.09;;;7.62;83.88
43741;BME280;29352;48.708;9.290;2023-05-22T04:29:04;97494.19;;;8.31;81.83
43741;BME280;29352;48.708;9.290;2023-05-22T04:31:35;97495.94;;;8.05;81.28
43741;BME280;29352;48.708;9.290;2023-05-22T04:34:01;97504.81;;;7.46;83.09
43741;BME280;29352;48.708;9.290;2023-05-22T04:36:27;97509.75;;;7.36;84.31
43741;BME280;29352;48.708;9.290;2023-05-22T04:38:53;97508.47;;;7.78;83.42
43741;BME280;29352;48.708;9.290;2023-05-22T04:41:22;97495.00;;;8.70;80.14
43741;BME280;29352;48.708;9.290;2023-05-22T04:43:51;97503.78;;;9.09;78.63
43741;BME280;29352;48.708;9.290;2023-05-22T04:46:18;97509.22;;;9.20;77.68
43741;BME280;29352;48.708;9.290;2023-05-22T04:48:43;97507.88;;;9.98;75.81
43741;BME280;29352;48.708;9.290;2023-05-22T04:51:09;97509.31;;;9.82;75.96
43741;BME280;29352;48.708;9.290;2023-05-22T04:53:37;97506.22;;;9.35;78.05
43741;BME280;29352;48.708;9.290;2023-05-22T04:56:03;97502.63;;;9.73;76.24
43741;BME280;29352;48.708;9.290;2023-05-22T04:58:29;97501.22;;;10.74;73.39
43741;BME280;29352;48.708;9.290;2023-05-22T05:00:54;97504.31;;;10.59;72.70
43741;BME280;29352;48.708;9.290;2023-05-22T05:03:22;97511.47;;;10.10;74.68
43741;BME280;29352;48.708;9.290;2023-05-22T05:05:50;97510.38;;;10.66;74.39
43741;BME280;29352;48.708;9.290;2023-05-22T05:08:16;97510.53;;;12.07;70.86
43741;BME280;29352;48.708;9.290;2023-05-22T05:10:41;97498.16;;;13.16;66.49
43741;BME280;29352;48.708;9.290;2023-05-22T05:13:07;97501.41;;;13.18;65.72
43741;BME280;29352;48.708;9.290;2023-05-22T05:15:32;97497.19;;;14.38;63.43
43741;BME280;29352;48.708;9.290;2023-05-22T05:17:58;97499.09;;;15.51;60.51
43741;BME280;29352;48.708;9.290;2023-05-22T05:20:23;97503.13;;;15.17;61.82
43741;BME280;29352;48.708;9.290;2023-05-22T05:22:49;97503.97;;;15.54;59.80
43741;BME280;29352;48.708;9.290;2023-05-22T05:25:15;97499.28;;;14.53;63.02
43741;BME280;29352;48.708;9.290;2023-05-22T05:27:40;97496.28;;;14.50;63.18
43741;BME280;29352;48.708;9.290;2023-05-22T05:30:06;97500.50;;;13.63;65.18
43741;BME280;29352;48.708;9.290;2023-05-22T05:32:32;97490.09;;;14.27;64.02
43741;BME280;29352;48.708;9.290;2023-05-22T05:34:58;97486.75;;;15.50;61.20
43741;BME280;29352;48.708;9.290;2023-05-22T05:37:23;97486.06;;;15.33;61.01
43741;BME280;29352;48.708;9.290;2023-05-22T05:39:49;97493.94;;;15.82;60.84
43741;BME280;29352;48.708;9.290;2023-05-22T05:42:14;97491.50;;;16.38;59.69
43741;BME280;29352;48.708;9.290;2023-05-22T05:44:41;97487.38;;;17.49;57.21
43741;BME280;29352;48.708;9.290;2023-05-22T05:47:07;97497.09;;;17.50;57.31
43741;BME280;29352;48.708;9.290;2023-05-22T05:49:33;97494.81;;;16.50;59.71
43741;BME280;29352;48.708;9.290;2023-05-22T05:51:58;97486.16;;;18.17;55.91
43741;BME280;29352;48.708;9.290;2023-05-22T05:54:24;97490.72;;;18.27;55.08
43741;BME280;29352;48.708;9.290;2023-05-22T05:56:52;97484.38;;;19.65;52.93
43741;BME280;29352;48.708;9.290;2023-05-22T05:59:17;97482.81;;;20.36;51.66
43741;BME280;29352;48.708;9.290;2023-05-22T06:01:44;97501.63;;;17.70;55.02
43741;BME280;29352;48.708;9.290;2023-05-22T06:04:11;97493.88;;;17.18;56.65
43741;BME280;29352;48.708;9.290;2023-05-22T06:06:37;97492.91;;;19.48;53.38
43741;BME280;29352;48.708;9.290;2023-05-22T06:09:04;97497.69;;;20.14;52.47
43741;BME280;29352;48.708;9.290;2023-05-22T06:11:31;97509.25;;;17.38;56.77
43741;BME280;29352;48.708;9.290;2023-05-22T06:13:57;97497.88;;;18.57;55.24
43741;BME280;29352;48.708;9.290;2023-05-22T06:16:27;97500.13;;;19.57;53.09
43741;BME280;29352;48.708;9.290;2023-05-22T06:18:53;97491.59;;;19.11;53.77
43741;BME280;29352;48.708;9.290;2023-05-22T06:21:21;97498.69;;;19.02;53.94
43741;BME280;29352;48.708;9.290;2023-05-22T06:23:48;97500.84;;;17.60;56.50
43741;BME280;29352;48.708;9.290;2023-05-22T06:26:15;97501.25;;;18.78;55.48
43741;BME280;29352;48.708;9.290;2023-05-22T06:28:42;97499.75;;;17.66;56.62
43741;BME280;29352;48.708;9.290;2023-05-22T06:31:08;97490.72;;;19.50;54.07
43741;BME280;29352;48.708;9.290;2023-05-22T06:33:37;97501.28;;;20.52;52.22
43741;BME280;29352;48.708;9.290;2023-05-22T06:36:05;97498.91;;;19.74;54.30
43741;BME280;29352;48.708;9.290;2023-05-22T06:38:31;97497.84;;;21.22;51.13
43741;BME280;29352;48.708;9.290;2023-05-22T06:40:57;97496.44;;;19.77;53.65
43741;BME280;29352;48.708;9.290;2023-05-22T06:43:22;97495.00;;;20.95;51.92
43741;BME280;29352;48.708;9.290;2023-05-22T06:45:48;97498.81;;;19.84;53.14
43741;BME280;29352;48.708;9.290;2023-05-22T06:48:13;97486.38;;;21.58;50.57
43741;BME280;29352;48.708;9.290;2023-05-22T06:50:39;97490.09;;;21.48;50.74
43741;BME280;29352;48.708;9.290;2023-05-22T06:53:04;97490.66;;;21.32;51.04
43741;BME280;29352;48.708;9.290;2023-05-22T06:55:30;97488.25;;;21.77;50.65
43741;BME280;29352;48.708;9.290;2023-05-22T06:57:56;97488.09;;;22.78;48.88
43741;BME280;29352;48.708;9.290;2023-05-22T07:00:21;97482.09;;;21.85;51.16
43741;BME280;29352;48.708;9.290;2023-05-22T07:02:48;97485.66;;;23.98;47.54
43741;BME280;29352;48.708;9.290;2023-05-22T07:05:14;97487.16;;;22.97;48.75
43741;BME280;29352;48.708;9.290;2023-05-22T07:07:39;97492.00;;;23.76;47.53
43741;BME280;29352;48.708;9.290;2023-05-22T07:10:05;97498.03;;;22.60;49.47
43741;BME280;29352;48.708;9.290;2023-05-22T07:12:31;97488.91;;;23.69;48.83
43741;BME280;29352;48.708;9.290;2023-05-22T07:14:57;97489.81;;;23.33;48.33
43741;BME280;29352;48.708;9.290;2023-05-22T07:17:24;97492.16;;;24.02;48.35
43741;BME280;29352;48.708;9.290;2023-05-22T07:19:50;97494.28;;;23.06;49.35
43741;BME280;29352;48.708;9.290;2023-05-22T07:22:15;97492.97;;;23.80;48.86
43741;BME280;29352;48.708;9.290;2023-05-22T07:24:41;97496.47;;;25.56;45.93
43741;BME280;29352;48.708;9.290;2023-05-22T07:27:07;97501.31;;;23.83;47.34
43741;BME280;29352;48.708;9.290;2023-05-22T07:29:33;97498.91;;;24.79;46.63
43741;BME280;29352;48.708;9.290;2023-05-22T07:31:59;97489.09;;;24.52;47.56
43741;BME280;29352;48.708;9.290;2023-05-22T07:34:25;97493.69;;;26.20;44.82
43741;BME280;29352;48.708;9.290;2023-05-22T07:36:56;97492.19;;;25.11;46.11
43741;BME280;29352;48.708;9.290;2023-05-22T07:39:22;97498.34;;;24.42;47.03
43741;BME280;29352;48.708;9.290;2023-05-22T07:41:47;97490.66;;;23.42;47.61
43741;BME280;29352;48.708;9.290;2023-05-22T07:44:16;97492.19;;;25.11;47.14
43741;BME280;29352;48.708;9.290;2023-05-22T07:46:42;97491.66;;;24.66;48.18
43741;BME280;29352;48.708;9.290;2023-05-22T07:49:07;97482.78;;;26.11;45.09
43741;BME280;29352;48.708;9.290;2023-05-22T07:51:33;97482.91;;;26.45;44.23
43741;BME280;29352;48.708;9.290;2023-05-22T07:53:58;97478.34;;;25.89;46.08
43741;BME280;29352;48.708;9.290;2023-05-22T07:56:24;97473.91;;;25.76;45.65
43741;BME280;29352;48.708;9.290;2023-05-22T07:58:51;97482.44;;;26.13;44.95
43741;BME280;29352;48.708;9.290;2023-05-22T08:01:17;97484.81;;;26.53;44.16
43741;BME280;29352;48.708;9.290;2023-05-22T08:03:43;97486.22;;;25.00;46.15
43741;BME280;29352;48.708;9.290;2023-05-22T08:06:08;97484.13;;;25.32;46.29
43741;BME280;29352;48.708;9.290;2023-05-22T08:08:34;97487.78;;;25.36;46.34
43741;BME280;29352;48.708;9.290;2023-05-22T08:10:59;97487.25;;;24.39;47.37
43741;BME280;29352;48.708;9.290;2023-05-22T08:13:25;97487.38;;;24.16;48.38
43741;BME280;29352;48.708;9.290;2023-05-22T08:15:50;97492.94;;;24.94;48.34
43741;BME280;29352;48.708;9.290;2023-05-22T08:18:16;97487.06;;;24.18;49.23
43741;BME280;29352;48.708;9.290;2023-05-22T08:20:42;97485.97;;;23.56;50.39
43741;BME280;29352;48.708;9.290;2023-05-22T08:23:07;97489.66;;;22.93;50.50
43741;BME280;29352;48.708;9.290;2023-05-22T08:25:33;97492.22;;;21.98;51.81
43741;BME280;29352;48.708;9.290;2023-05-22T08:27:58;97481.53;;;22.29;52.17
43741;BME280;29352;48.708;9.290;2023-05-22T08:30:24;97480.78;;;22.65;51.89
43741;BME280;29352;48.708;9.290;2023-05-22T08:32:49;97485.25;;;22.47;50.99
43741;BME280;29352;48.708;9.290;2023-05-22T08:35:15;97474.28;;;23.11;50.59
43741;BME280;29352;48.708;9.290;2023-05-22T08:37:40;97482.31;;;22.57;53.08
43741;BME280;29352;48.708;9.290;2023-05-22T08:40:09;97479.75;;;22.75;51.31
43741;BME280;29352;48.708;9.290;2023-05-22T08:42:38;97470.91;;;23.50;49.34
43741;BME280;29352;48.708;9.290;2023-05-22T08:45:04;97478.75;;;23.29;49.71
43741;BME280;29352;48.708;9.290;2023-05-22T08:47:33;97473.47;;;22.10;51.44
43741;BME280;29352;48.708;9.290;2023-05-22T08:50:02;97474.38;;;22.47;51.18
43741;BME280;29352;48.708;9.290;2023-05-22T08:52:50;97476.75;;;22.62;50.47
43741;BME280;29352;48.708;9.290;2023-05-22T08:55:18;97486.41;;;22.68;50.04
43741;BME280;29352;48.708;9.290;2023-05-22T08:57:48;97480.97;;;22.68;50.73
43741;BME280;29352;48.708;9.290;2023-05-22T09:00:16;97492.09;;;21.24;52.75
43741;BME280;29352;48.708;9.290;2023-05-22T09:02:44;97492.03;;;20.72;53.80
43741;BME280;29352;48.708;9.290;2023-05-22T09:05:11;97483.06;;;22.08;51.73
43741;BME280;29352;48.708;9.290;2023-05-22T09:07:37;97483.56;;;20.79;54.57
43741;BME280;29352;48.708;9.290;2023-05-22T09:10:05;97483.63;;;20.55;55.32
43741;BME280;29352;48.708;9.290;2023-05-22T09:12:32;97486.69;;;21.43;52.84
43741;BME280;29352;48.708;9.290;2023-05-22T09:15:10;97487.63;;;20.82;53.82
43741;BME280;29352;48.708;9.290;2023-05-22T09:17:38;97491.09;;;20.20;55.40
43741;BME280;29352;48.708;9.290;2023-05-22T09:20:05;97491.59;;;20.46;54.24
43741;BME280;29352;48.708;9.290;2023-05-22T09:22:36;97486.94;;;18.77;56.93
43741;BME280;29352;48.708;9.290;2023-05-22T09:25:03;97494.66;;;17.39;60.02
43741;BME280;29352;48.708;9.290;2023-05-22T09:27:29;97486.44;;;18.70;58.21
43741;BME280;29352;48.708;9.290;2023-05-22T09:29:56;97488.78;;;18.32;59.06
43741;BME280;29352;48.708;9.290;2023-05-22T09:32:22;97490.75;;;18.76;59.26
43741;BME280;29352;48.708;9.290;2023-05-22T09:34:49;97481.72;;;21.45;53.87
43741;BME280;29352;48.708;9.290;2023-05-22T09:37:16;97480.34;;;22.72;51.28
43741;BME280;29352;48.708;9.290;2023-05-22T09:39:43;97479.50;;;22.07;52.14
43741;BME280;29352;48.708;9.290;2023-05-22T09:42:13;97485.06;;;22.02;52.76
43741;BME280;29352;48.708;9.290;2023-05-22T09:44:41;97481.00;;;20.50;54.46
43741;BME280;29352;48.708;9.290;2023-05-22T09:47:12;97474.00;;;21.52;53.23
43741;BME280;29352;48.708;9.290;2023-05-22T09:49:42;97469.63;;;23.11;51.33
43741;BME280;29352;48.708;9.290;2023-05-22T09:52:09;97470.44;;;24.45;48.54
43741;BME280;29352;48.708;9.290;2023-05-22T09:54:56;97466.31;;;24.74;47.74
43741;BME280;29352;48.708;9.290;2023-05-22T09:57:24;97462.34;;;24.14;50.20
43741;BME280;29352;48.708;9.290;2023-05-22T09:59:53;97468.63;;;24.23;50.03
43741;BME280;29352;48.708;9.290;2023-05-22T10:02:24;97474.13;;;24.49;50.91
43741;BME280;29352;48.708;9.290;2023-05-22T10:04:51;97463.69;;;23.85;51.61
43741;BME280;29352;48.708;9.290;2023-05-22T10:07:36;97463.19;;;23.52;51.56
43741;BME280;29352;48.708;9.290;2023-05-22T10:10:11;97467.59;;;23.17;49.87
43741;BME280;29352;48.708;9.290;2023-05-22T10:12:45;97459.50;;;23.48;51.64
43741;BME280;29352;48.708;9.290;2023-05-22T10:15:16;97462.44;;;23.92;50.53
43741;BME280;29352;48.708;9.290;2023-05-22T10:17:43;97465.22;;;23.69;50.52
43741;BME280;29352;48.708;9.290;2023-05-22T10:20:11;97459.69;;;25.53;47.37
43741;BME280;29352;48.708;9.290;2023-05-22T10:22:37;97460.78;;;25.43;49.10
43741;BME280;29352;48.708;9.290;2023-05-22T10:25:04;97454.03;;;25.49;46.92
43741;BME280;29352;48.708;9.290;2023-05-22T10:27:30;97443.50;;;26.16;46.98
43741;BME280;29352;48.708;9.290;2023-05-22T10:30:18;97447.31;;;25.56;48.77
43741;BME280;29352;48.708;9.290;2023-05-22T10:35:44;97449.31;;;25.12;47.97
43741;BME280;29352;48.708;9.290;2023-05-22T10:38:49;97437.31;;;25.60;47.37
43741;BME280;29352;48.708;9.290;2023-05-22T10:41:25;97448.66;;;24.80;47.92
43741;BME280;29352;48.708;9.290;2023-05-22T10:43:50;97450.69;;;24.31;48.87
43741;BME280;29352;48.708;9.290;2023-05-22T10:46:17;97443.69;;;24.73;50.42
43741;BME280;29352;48.708;9.290;2023-05-22T10:48:48;97439.53;;;25.11;49.68
43741;BME280;29352;48.708;9.290;2023-05-22T10:51:21;97430.69;;;24.96;48.51
43741;BME280;29352;48.708;9.290;2023-05-22T10:54:00;97431.50;;;25.70;48.45
43741;BME280;29352;48.708;9.290;2023-05-22T10:56:33;97424.97;;;25.45;49.83
43741;BME280;29352;48.708;9.290;2023-05-22T10:59:01;97430.84;;;25.00;48.34
43741;BME280;29352;48.708;9.290;2023-05-22T11:01:29;97413.78;;;25.29;48.01
43741;BME280;29352;48.708;9.290;2023-05-22T11:04:09;97417.97;;;25.82;48.15
43741;BME280;29352;48.708;9.290;2023-05-22T11:06:45;97417.69;;;25.11;46.88
43741;BME280;29352;48.708;9.290;2023-05-22T11:09:38;97408.94;;;25.35;46.27
43741;BME280;29352;48.708;9.290;2023-05-22T11:12:23;97417.84;;;24.53;49.45
43741;BME280;29352;48.708;9.290;2023-05-22T11:15:01;97408.41;;;25.88;48.47
43741;BME280;29352;48.708;9.290;2023-05-22T11:17:32;97404.50;;;25.98;47.47
43741;BME280;29352;48.708;9.290;2023-05-22T11:22:55;97403.16;;;25.36;49.01
43741;BME280;29352;48.708;9.290;2023-05-22T11:25:26;97396.59;;;25.37;48.26
43741;BME280;29352;48.708;9.290;2023-05-22T11:27:54;97408.06;;;24.96;47.06
43741;BME280;29352;48.708;9.290;2023-05-22T11:30:25;97405.53;;;24.65;49.16
43741;BME280;29352;48.708;9.290;2023-05-22T11:32:52;97388.06;;;25.39;48.61
43741;BME280;29352;48.708;9.290;2023-05-22T11:35:19;97395.34;;;25.09;49.82
43741;BME280;29352;48.708;9.290;2023-05-22T11:37:47;97392.47;;;24.88;49.08
43741;BME280;29352;48.708;9.290;2023-05-22T11:40:16;97387.47;;;25.16;48.25
43741;BME280;29352;48.708;9.290;2023-05-22T11:42:43;97387.47;;;25.16;47.25
43741;BME280;29352;48.708;9.290;2023-05-22T11:45:09;97389.47;;;24.63;49.89
43741;BME280;29352;48.708;9.290;2023-05-22T11:47:36;97382.84;;;24.90;48.11
43741;BME280;29352;48.708;9.290;2023-05-22T11:50:02;97368.25;;;25.04;48.04
43741;BME280;29352;48.708;9.290;2023-05-22T11:52:32;97361.88;;;25.38;46.60
43741;BME280;29352;48.708;9.290;2023-05-22T11:54:59;97369.09;;;24.78;49.42
43741;BME280;29352;48.708;9.290;2023-05-22T11:57:26;97370.50;;;24.93;47.74
43741;BME280;29352;48.708;9.290;2023-05-22T11:59:52;97366.00;;;24.97;48.96
43741;BME280;29352;48.708;9.290;2023-05-22T12:02:18;97363.25;;;24.01;48.90
43741;BME280;29352;48.708;9.290;2023-05-22T12:04:45;97365.38;;;24.74;48.89
43741;BME280;29352;48.708;9.290;2023-05-22T12:07:11;97364.88;;;25.07;49.21
43741;BME280;29352;48.708;9.290;2023-05-22T12:09:41;97357.38;;;24.51;49.19
43741;BME280;29352;48.708;9.290;2023-05-22T12:12:10;97365.22;;;23.61;52.12
43741;BME280;29352;48.708;9.290;2023-05-22T12:14:36;97366.34;;;24.26;50.59
43741;BME280;29352;48.708;9.290;2023-05-22T12:17:02;97365.38;;;24.57;49.07
43741;BME280;29352;48.708;9.290;2023-05-22T12:19:31;97350.41;;;24.97;46.84
43741;BME280;29352;48.708;9.290;2023-05-22T12:21:57;97354.97;;;24.59;49.35
43741;BME280;29352;48.708;9.290;2023-05-22T12:24:23;97357.84;;;24.45;49.54
43741;BME280;29352;48.708;9.290;2023-05-22T12:26:49;97359.41;;;25.07;45.83
43741;BME280;29352;48.708;9.290;2023-05-22T12:29:16;97360.03;;;23.99;48.41
43741;BME280;29352;48.708;9.290;2023-05-22T12:31:43;97368.56;;;24.32;49.30
43741;BME280;29352;48.708;9.290;2023-05-22T12:34:14;97364.09;;;24.28;51.08
43741;BME280;29352;48.708;9.290;2023-05-22T12:36:42;97360.97;;;23.86;49.54
43741;BME280;29352;48.708;9.290;2023-05-22T12:39:16;97367.94;;;24.10;48.08
43741;BME280;29352;48.708;9.290;2023-05-22T12:41:43;97363.28;;;24.71;45.20
43741;BME280;29352;48.708;9.290;2023-05-22T12:44:10;97369.72;;;24.75;44.96
43741;BME280;29352;48.708;9.290;2023-05-22T12:46:37;97362.81;;;24.86;47.51
43741;BME280;29352;48.708;9.290;2023-05-22T12:49:03;97369.72;;;24.75;49.77
43741;BME280;29352;48.708;9.290;2023-05-22T12:51:30;97377.44;;;24.64;49.46
43741;BME280;29352;48.708;9.290;2023-05-22T12:54:00;97371.13;;;24.46;46.53
43741;BME280;29352;48.708;9.290;2023-05-22T12:56:27;97370.38;;;23.71;47.70
43741;BME280;29352;48.708;9.290;2023-05-22T12:58:57;97368.50;;;23.98;48.63
43741;BME280;29352;48.708;9.290;2023-05-22T13:01:24;97362.81;;;24.69;44.75
43741;BME280;29352;48.708;9.290;2023-05-22T13:03:51;97357.47;;;24.98;45.42
43741;BME280;29352;48.708;9.290;2023-05-22T13:06:17;97347.66;;;25.15;41.65
43741;BME280;29352;48.708;9.290;2023-05-22T13:08:43;97356.22;;;24.18;46.04
43741;BME280;29352;48.708;9.290;2023-05-22T13:11:10;97346.94;;;24.53;47.51
43741;BME280;29352;48.708;9.290;2023-05-22T13:13:36;97356.88;;;24.32;49.22
43741;BME280;29352;48.708;9.290;2023-05-22T13:16:01;97339.09;;;24.52;45.64
43741;BME280;29352;48.708;9.290;2023-05-22T13:18:27;97335.25;;;24.62;47.10
43741;BME280;29352;48.708;9.290;2023-05-22T13:20:53;97336.38;;;24.61;45.08
43741;BME280;29352;48.708;9.290;2023-05-22T13:23:20;97325.63;;;24.29;45.44
43741;BME280;29352;48.708;9.290;2023-05-22T13:25:45;97342.13;;;24.42;49.70
43741;BME280;29352;48.708;9.290;2023-05-22T13:28:11;97333.13;;;24.15;51.23